createdAt,value
2023-04-02T00:00:04.009Z,604.95
2023-04-02T00:00:13.990Z,604.31
2023-04-02T00:00:34.001Z,604.23
2023-04-02T00:00:43.990Z,604.61
2023-04-02T00:00:54.005Z,604.29
2023-04-02T00:01:04.004Z,603.28
2023-04-02T00:01:14.013Z,604.68
2023-04-02T00:01:23.997Z,602.79
2023-04-02T00:01:33.993Z,603.01
2023-04-02T00:01:44.038Z,604.04
2023-04-02T00:02:04.015Z,604.55
2023-04-02T00:02:14.097Z,603.82
2023-04-02T00:02:24.009Z,604.71
2023-04-02T00:02:34.159Z,602.96
2023-04-02T00:02:44.020Z,602.60
2023-04-02T00:02:54.122Z,604.18
2023-04-02T00:03:04.045Z,604.11
2023-04-02T00:03:14.106Z,603.77
2023-04-02T00:03:24.068Z,603.86
2023-04-02T00:03:44.131Z,604.39
2023-04-02T00:03:54.313Z,604.07
2023-04-02T00:04:04.048Z,604.38
2023-04-02T00:04:14.198Z,603.69
2023-04-02T00:04:24.047Z,603.06
2023-04-02T00:04:34.010Z,603.98
2023-04-02T00:04:44.019Z,602.92
2023-04-02T00:05:04.017Z,603.23
2023-04-02T00:05:14.020Z,603.47
2023-04-02T00:05:24.032Z,602.85
2023-04-02T00:05:34.318Z,603.46
2023-04-02T00:05:44.015Z,603.62
2023-04-02T00:05:54.018Z,603.40
2023-04-02T00:06:04.015Z,603.46
2023-04-02T00:06:14.023Z,603.31
2023-04-02T00:06:34.038Z,603.45
2023-04-02T00:06:44.023Z,603.86
2023-04-02T00:06:54.017Z,603.65
2023-04-02T00:07:04.019Z,603.14
2023-04-02T00:07:14.019Z,602.57
2023-04-02T00:07:24.017Z,602.87
2023-04-02T00:07:34.025Z,602.71
2023-04-02T00:07:44.026Z,603.32
2023-04-02T00:07:54.029Z,604.06
2023-04-02T00:08:04.033Z,602.02
2023-04-02T00:08:14.021Z,602.75
2023-04-02T00:08:24.039Z,601.55
2023-04-02T00:08:34.026Z,603.27
2023-04-02T00:08:44.027Z,602.92
2023-04-02T00:08:54.030Z,602.72
2023-04-02T00:09:04.034Z,602.38
2023-04-02T00:09:14.041Z,603.41
2023-04-02T00:09:24.035Z,602.22
2023-04-02T00:09:34.033Z,602.17
2023-04-02T00:09:44.042Z,603.17
2023-04-02T00:09:54.042Z,602.90
2023-04-02T00:10:04.030Z,603.45
2023-04-02T00:10:14.042Z,603.67
2023-04-02T00:10:24.035Z,603.52
2023-04-02T00:10:34.041Z,603.31
2023-04-02T00:10:44.034Z,603.09
2023-04-02T00:10:54.045Z,602.94
2023-04-02T00:11:04.044Z,603.28
2023-04-02T00:11:14.041Z,603.08
2023-04-02T00:11:34.050Z,603.93
2023-04-02T00:11:44.050Z,602.50
2023-04-02T00:11:54.042Z,602.59
2023-04-02T00:12:04.041Z,602.10
2023-04-02T00:12:14.046Z,603.18
2023-04-02T00:12:24.048Z,602.39
2023-04-02T00:12:34.072Z,602.42
2023-04-02T00:12:44.050Z,602.88
2023-04-02T00:13:04.047Z,602.50
2023-04-02T00:13:14.048Z,602.46
2023-04-02T00:13:24.042Z,603.20
2023-04-02T00:13:34.049Z,602.31
2023-04-02T00:13:44.044Z,602.85
2023-04-02T00:13:54.055Z,602.75
2023-04-02T00:14:04.047Z,603.03
2023-04-02T00:14:14.054Z,603.02
2023-04-02T00:14:24.051Z,602.91
2023-04-02T00:14:34.051Z,602.97
2023-04-02T00:14:44.049Z,602.58
2023-04-02T00:14:54.056Z,602.77
2023-04-02T00:15:04.055Z,602.84
2023-04-02T00:15:14.070Z,602.93
2023-04-02T00:15:24.077Z,602.81
2023-04-02T00:15:44.057Z,602.76
2023-04-02T00:15:54.063Z,602.83
2023-04-02T00:16:04.071Z,602.70
2023-04-02T00:16:14.095Z,603.35
2023-04-02T00:16:24.150Z,602.77
2023-04-02T00:16:34.080Z,602.94
2023-04-02T00:16:54.082Z,601.29
2023-04-02T00:17:04.061Z,602.67
2023-04-02T00:17:14.060Z,602.34
2023-04-02T00:17:24.069Z,602.34
2023-04-02T00:17:34.062Z,603.09
2023-04-02T00:17:44.066Z,603.05
2023-04-02T00:17:54.135Z,603.01
2023-04-02T00:18:04.191Z,603.08
2023-04-02T00:18:14.074Z,602.71
2023-04-02T00:18:24.119Z,602.52
2023-04-02T00:18:34.074Z,602.29
2023-04-02T00:18:44.072Z,602.27
2023-04-02T00:18:54.068Z,602.52
2023-04-02T00:19:04.067Z,602.63
2023-04-02T00:19:14.258Z,601.66
2023-04-02T00:19:24.063Z,603.01
2023-04-02T00:19:34.072Z,602.43
2023-04-02T00:19:44.074Z,602.02
2023-04-02T00:19:54.079Z,602.38
2023-04-02T00:20:04.084Z,602.13
2023-04-02T00:20:24.080Z,602.38
2023-04-02T00:20:34.087Z,601.40
2023-04-02T00:20:44.080Z,601.48
2023-04-02T00:20:54.112Z,601.97
2023-04-02T00:21:04.087Z,602.34
2023-04-02T00:21:14.094Z,603.09
2023-04-02T00:21:24.083Z,601.44
2023-04-02T00:21:34.084Z,599.98
2023-04-02T00:21:44.082Z,602.32
2023-04-02T00:22:04.085Z,601.86
2023-04-02T00:22:14.087Z,601.90
2023-04-02T00:22:24.089Z,601.98
2023-04-02T00:22:34.090Z,601.65
2023-04-02T00:22:44.106Z,601.80
2023-04-02T00:22:54.120Z,601.83
2023-04-02T00:23:04.088Z,601.22
2023-04-02T00:23:14.095Z,601.18
2023-04-02T00:23:24.095Z,600.09
2023-04-02T00:23:34.096Z,601.82
2023-04-02T00:23:44.123Z,601.58
2023-04-02T00:23:54.114Z,601.29
2023-04-02T00:24:04.115Z,602.78
2023-04-02T00:24:14.101Z,602.05
2023-04-02T00:24:24.099Z,600.92
2023-04-02T00:24:34.106Z,600.11
2023-04-02T00:24:44.099Z,600.67
2023-04-02T00:25:04.103Z,600.50
2023-04-02T00:25:14.115Z,601.60
2023-04-02T00:25:24.107Z,601.34
2023-04-02T00:25:34.253Z,601.11
2023-04-02T00:25:44.106Z,601.17
2023-04-02T00:25:54.111Z,601.17
2023-04-02T00:26:04.115Z,600.90
2023-04-02T00:26:14.146Z,600.81
2023-04-02T00:26:24.116Z,601.24
2023-04-02T00:26:34.107Z,601.48
2023-04-02T00:26:44.116Z,600.39
2023-04-02T00:26:54.123Z,601.25
2023-04-02T00:27:04.105Z,601.17
2023-04-02T00:27:24.130Z,599.31
2023-04-02T00:27:34.117Z,601.53
2023-04-02T00:27:44.113Z,599.99
2023-04-02T00:27:54.120Z,600.60
2023-04-02T00:28:04.117Z,600.91
2023-04-02T00:28:14.122Z,601.17
2023-04-02T00:28:24.114Z,599.14
2023-04-02T00:28:44.113Z,600.30
2023-04-02T00:28:54.121Z,600.20
2023-04-02T00:29:04.174Z,599.49
2023-04-02T00:29:14.147Z,599.53
2023-04-02T00:29:24.119Z,599.47
2023-04-02T00:29:34.120Z,600.45
2023-04-02T00:29:44.118Z,600.42
2023-04-02T00:29:54.147Z,600.37
2023-04-02T00:30:14.141Z,600.60
2023-04-02T00:30:24.120Z,600.76
2023-04-02T00:30:34.126Z,600.21
2023-04-02T00:30:44.141Z,600.25
2023-04-02T00:30:54.156Z,600.30
2023-04-02T00:31:04.131Z,599.72
2023-04-02T00:31:14.149Z,599.98
2023-04-02T00:31:24.161Z,599.38
2023-04-02T00:31:34.186Z,599.90
2023-04-02T00:31:54.153Z,599.73
2023-04-02T00:32:04.153Z,599.63
2023-04-02T00:32:14.159Z,599.54
2023-04-02T00:32:24.136Z,599.85
2023-04-02T00:32:34.176Z,600.85
2023-04-02T00:32:44.222Z,600.04
2023-04-02T00:32:54.181Z,600.62
2023-04-02T00:33:04.149Z,598.43
2023-04-02T00:33:14.139Z,598.92
2023-04-02T00:33:24.180Z,599.98
2023-04-02T00:33:34.140Z,600.40
2023-04-02T00:33:44.134Z,600.00
2023-04-02T00:33:54.140Z,600.11
2023-04-02T00:34:04.137Z,600.31
2023-04-02T00:34:14.137Z,599.67
2023-04-02T00:34:34.142Z,600.39
2023-04-02T00:34:44.141Z,599.76
2023-04-02T00:34:54.155Z,598.99
2023-04-02T00:35:04.147Z,599.98
2023-04-02T00:35:14.151Z,600.36
2023-04-02T00:35:24.163Z,600.25
2023-04-02T00:35:34.380Z,599.82
2023-04-02T00:35:44.180Z,599.89
2023-04-02T00:35:54.162Z,600.01
2023-04-02T00:36:04.153Z,599.90
2023-04-02T00:36:14.182Z,599.97
2023-04-02T00:36:24.152Z,600.27
2023-04-02T00:36:34.153Z,600.13
2023-04-02T00:36:44.177Z,599.63
2023-04-02T00:36:54.150Z,599.67
2023-04-02T00:37:04.152Z,599.57
2023-04-02T00:37:14.156Z,599.69
2023-04-02T00:37:24.179Z,599.94
2023-04-02T00:37:34.155Z,599.78
2023-04-02T00:37:44.161Z,599.49
2023-04-02T00:37:54.190Z,599.65
2023-04-02T00:38:04.162Z,600.16
2023-04-02T00:38:14.158Z,600.00
2023-04-02T00:38:24.161Z,599.83
2023-04-02T00:38:34.168Z,599.32
2023-04-02T00:38:54.163Z,599.51
2023-04-02T00:39:04.167Z,599.81
2023-04-02T00:39:14.167Z,599.74
2023-04-02T00:39:24.176Z,600.03
2023-04-02T00:39:34.167Z,599.64
2023-04-02T00:39:44.180Z,599.15
2023-04-02T00:39:54.167Z,599.64
2023-04-02T00:40:04.186Z,600.19
2023-04-02T00:40:14.173Z,599.83
2023-04-02T00:40:24.168Z,600.63
2023-04-02T00:40:34.170Z,598.79
2023-04-02T00:40:54.179Z,599.91
2023-04-02T00:41:04.176Z,598.95
2023-04-02T00:41:14.177Z,599.27
2023-04-02T00:41:24.181Z,600.21
2023-04-02T00:41:34.174Z,598.57
2023-04-02T00:41:44.180Z,599.38
2023-04-02T00:41:54.180Z,599.61
2023-04-02T00:42:04.179Z,599.80
2023-04-02T00:42:14.181Z,598.57
2023-04-02T00:42:24.182Z,599.21
2023-04-02T00:42:34.182Z,600.80
2023-04-02T00:42:54.189Z,599.65
2023-04-02T00:43:04.194Z,599.18
2023-04-02T00:43:14.186Z,599.11
2023-04-02T00:43:24.182Z,599.60
2023-04-02T00:43:34.180Z,598.62
2023-04-02T00:43:44.188Z,599.57
2023-04-02T00:43:54.183Z,598.73
2023-04-02T00:44:04.189Z,598.69
2023-04-02T00:44:14.192Z,599.69
2023-04-02T00:44:24.193Z,599.29
2023-04-02T00:44:34.191Z,598.87
2023-04-02T00:44:44.218Z,599.05
2023-04-02T00:44:54.179Z,599.11
2023-04-02T00:45:04.206Z,599.41
2023-04-02T00:45:14.206Z,598.97
2023-04-02T00:45:24.190Z,599.46
2023-04-02T00:45:34.404Z,599.51
2023-04-02T00:45:54.225Z,599.23
2023-04-02T00:46:04.219Z,599.47
2023-04-02T00:46:14.388Z,599.20
2023-04-02T00:46:24.385Z,599.18
2023-04-02T00:46:34.202Z,599.22
2023-04-02T00:46:44.204Z,599.20
2023-04-02T00:46:54.206Z,599.38
2023-04-02T00:47:04.205Z,599.06
2023-04-02T00:47:14.201Z,599.87
2023-04-02T00:47:34.249Z,598.50
2023-04-02T00:47:44.270Z,598.83
2023-04-02T00:47:54.257Z,598.56
2023-04-02T00:48:04.287Z,598.41
2023-04-02T00:48:14.215Z,599.44
2023-04-02T00:48:24.215Z,598.19
2023-04-02T00:48:34.252Z,598.68
2023-04-02T00:48:44.229Z,599.75
2023-04-02T00:48:54.218Z,598.72
2023-04-02T00:49:04.224Z,598.84
2023-04-02T00:49:14.244Z,598.62
2023-04-02T00:49:24.218Z,598.03
2023-04-02T00:49:34.221Z,597.93
2023-04-02T00:49:44.220Z,599.20
2023-04-02T00:49:54.221Z,599.41
2023-04-02T00:50:04.217Z,599.08
2023-04-02T00:50:24.227Z,597.39
2023-04-02T00:50:34.261Z,598.14
2023-04-02T00:50:44.221Z,598.00
2023-04-02T00:50:54.223Z,597.06
2023-04-02T00:51:04.225Z,597.85
2023-04-02T00:51:14.246Z,597.73
2023-04-02T00:51:24.226Z,598.66
2023-04-02T00:51:34.241Z,598.06
2023-04-02T00:51:44.228Z,597.18
2023-04-02T00:51:54.233Z,597.82
2023-04-02T00:52:04.232Z,597.45
2023-04-02T00:52:14.237Z,597.36
2023-04-02T00:52:24.233Z,597.91
2023-04-02T00:52:34.232Z,598.01
2023-04-02T00:52:44.233Z,597.79
2023-04-02T00:52:54.257Z,596.80
2023-04-02T00:53:04.263Z,598.43
2023-04-02T00:53:14.239Z,600.06
2023-04-02T00:53:24.267Z,598.47
2023-04-02T00:53:34.244Z,598.11
2023-04-02T00:53:44.243Z,597.12
2023-04-02T00:53:54.247Z,597.63
2023-04-02T00:54:04.267Z,597.19
2023-04-02T00:54:14.248Z,597.51
2023-04-02T00:54:24.245Z,597.79
2023-04-02T00:54:34.245Z,597.69
2023-04-02T00:54:44.255Z,598.03
2023-04-02T00:54:54.243Z,597.61
2023-04-02T00:55:04.248Z,600.14
2023-04-02T00:55:14.245Z,596.89
2023-04-02T00:55:24.259Z,597.70
2023-04-02T00:55:34.437Z,597.53
2023-04-02T00:55:44.267Z,597.91
2023-04-02T00:55:54.257Z,598.02
2023-04-02T00:56:04.249Z,597.50
2023-04-02T00:56:14.251Z,597.47
2023-04-02T00:56:24.271Z,598.10
2023-04-02T00:56:34.274Z,597.53
2023-04-02T00:56:54.275Z,598.34
2023-04-02T00:57:04.334Z,597.56
2023-04-02T00:57:14.320Z,597.29
2023-04-02T00:57:24.283Z,597.35
2023-04-02T00:57:34.314Z,597.30
2023-04-02T00:57:44.275Z,597.35
2023-04-02T00:57:54.258Z,598.88
2023-04-02T00:58:04.277Z,596.44
2023-04-02T00:58:14.266Z,596.71
2023-04-02T00:58:24.264Z,598.00
2023-04-02T00:58:34.265Z,597.11
2023-04-02T00:58:44.262Z,597.74
2023-04-02T00:58:54.268Z,597.29
2023-04-02T00:59:04.270Z,596.36
2023-04-02T00:59:14.266Z,596.19
2023-04-02T00:59:24.274Z,597.88
2023-04-02T00:59:34.268Z,598.38
2023-04-02T00:59:44.271Z,596.75
2023-04-02T00:59:54.266Z,597.24
2023-04-02T01:00:04.272Z,595.71
2023-04-02T01:00:14.273Z,597.11
2023-04-02T01:00:24.280Z,596.64
2023-04-02T01:00:34.275Z,596.03
2023-04-02T01:00:44.283Z,597.29
2023-04-02T01:00:54.272Z,596.53
2023-04-02T01:01:04.361Z,597.81
2023-04-02T01:01:14.323Z,597.63
2023-04-02T01:01:24.365Z,597.82
2023-04-02T01:01:34.328Z,597.59
2023-04-02T01:01:44.351Z,596.54
2023-04-02T01:01:54.410Z,597.24
2023-04-02T01:02:04.284Z,595.33
2023-04-02T01:02:14.314Z,596.53
2023-04-02T01:02:34.390Z,596.77
2023-04-02T01:02:44.350Z,596.55
2023-04-02T01:02:54.384Z,596.48
2023-04-02T01:03:04.489Z,597.33
2023-04-02T01:03:14.338Z,598.11
2023-04-02T01:03:24.364Z,596.70
2023-04-02T01:03:34.494Z,597.23
2023-04-02T01:03:44.399Z,597.95
2023-04-02T01:03:54.314Z,597.48
2023-04-02T01:04:04.300Z,597.51
2023-04-02T01:04:14.292Z,597.43
2023-04-02T01:04:24.288Z,597.17
2023-04-02T01:04:34.350Z,596.80
2023-04-02T01:04:44.295Z,597.40
2023-04-02T01:04:54.310Z,597.13
2023-04-02T01:05:04.304Z,597.05
2023-04-02T01:05:14.294Z,597.40
2023-04-02T01:05:24.300Z,597.11
2023-04-02T01:05:34.394Z,597.39
2023-04-02T01:05:44.313Z,597.02
2023-04-02T01:05:54.303Z,597.26
2023-04-02T01:06:04.302Z,597.52
2023-04-02T01:06:14.304Z,596.25
2023-04-02T01:06:24.313Z,597.02
2023-04-02T01:06:34.315Z,597.29
2023-04-02T01:06:44.298Z,597.48
2023-04-02T01:07:04.309Z,596.80
2023-04-02T01:07:14.296Z,596.64
2023-04-02T01:07:24.300Z,597.16
2023-04-02T01:07:34.310Z,596.99
2023-04-02T01:07:44.302Z,597.27
2023-04-02T01:07:54.303Z,597.12
2023-04-02T01:08:04.312Z,597.43
2023-04-02T01:08:14.303Z,596.42
2023-04-02T01:08:24.308Z,598.17
2023-04-02T01:08:34.302Z,596.84
2023-04-02T01:08:44.304Z,596.38
2023-04-02T01:08:54.319Z,597.21
2023-04-02T01:09:04.312Z,597.22
2023-04-02T01:09:14.319Z,597.53
2023-04-02T01:09:24.310Z,596.04
2023-04-02T01:09:34.327Z,595.58
2023-04-02T01:09:44.314Z,596.82
2023-04-02T01:09:54.306Z,597.71
2023-04-02T01:10:04.312Z,597.65
2023-04-02T01:10:14.324Z,597.82
2023-04-02T01:10:24.312Z,597.47
2023-04-02T01:10:44.321Z,598.10
2023-04-02T01:10:54.322Z,597.99
2023-04-02T01:11:04.340Z,597.24
2023-04-02T01:11:14.318Z,597.94
2023-04-02T01:11:24.327Z,597.26
2023-04-02T01:11:34.330Z,596.82
2023-04-02T01:11:44.325Z,598.08
2023-04-02T01:11:54.319Z,598.64
2023-04-02T01:12:04.335Z,596.85
2023-04-02T01:12:14.317Z,597.25
2023-04-02T01:12:34.333Z,598.62
2023-04-02T01:12:44.352Z,597.66
2023-04-02T01:12:54.322Z,597.24
2023-04-02T01:13:04.326Z,597.63
2023-04-02T01:13:14.326Z,597.13
2023-04-02T01:13:24.343Z,597.04
2023-04-02T01:13:34.329Z,597.42
2023-04-02T01:13:54.327Z,597.86
2023-04-02T01:14:04.337Z,598.46
2023-04-02T01:14:14.336Z,597.70
2023-04-02T01:14:24.340Z,596.66
2023-04-02T01:14:34.336Z,597.75
2023-04-02T01:14:44.333Z,597.45
2023-04-02T01:14:54.342Z,597.18
2023-04-02T01:15:04.341Z,598.23
2023-04-02T01:15:14.342Z,597.24
2023-04-02T01:15:24.344Z,597.54
2023-04-02T01:15:34.735Z,596.77
2023-04-02T01:15:44.359Z,596.79
2023-04-02T01:15:54.377Z,597.76
2023-04-02T01:16:04.410Z,597.50
2023-04-02T01:16:14.370Z,597.76
2023-04-02T01:16:24.475Z,597.13
2023-04-02T01:16:34.378Z,597.04
2023-04-02T01:16:44.358Z,597.53
2023-04-02T01:16:54.350Z,597.79
2023-04-02T01:17:04.351Z,598.04
2023-04-02T01:17:14.347Z,597.68
2023-04-02T01:17:34.397Z,597.28
2023-04-02T01:17:44.409Z,597.27
2023-04-02T01:17:54.461Z,597.09
2023-04-02T01:18:04.432Z,596.45
2023-04-02T01:18:14.365Z,596.97
2023-04-02T01:18:24.354Z,596.36
2023-04-02T01:18:34.363Z,596.72
2023-04-02T01:18:44.383Z,596.92
2023-04-02T01:18:54.356Z,596.95
2023-04-02T01:19:14.356Z,598.49
2023-04-02T01:19:24.362Z,597.05
2023-04-02T01:19:34.394Z,596.34
2023-04-02T01:19:44.359Z,596.82
2023-04-02T01:19:54.363Z,596.28
2023-04-02T01:20:04.364Z,596.84
2023-04-02T01:20:14.359Z,596.55
2023-04-02T01:20:24.369Z,596.04
2023-04-02T01:20:34.404Z,596.72
2023-04-02T01:20:44.371Z,597.11
2023-04-02T01:20:54.369Z,597.30
2023-04-02T01:21:04.389Z,597.13
2023-04-02T01:21:14.364Z,596.52
2023-04-02T01:21:24.401Z,596.96
2023-04-02T01:21:34.372Z,597.18
2023-04-02T01:21:54.383Z,597.37
2023-04-02T01:22:04.368Z,596.90
2023-04-02T01:22:14.371Z,596.86
2023-04-02T01:22:24.374Z,596.66
2023-04-02T01:22:34.375Z,596.53
2023-04-02T01:22:44.371Z,596.50
2023-04-02T01:22:54.375Z,596.32
2023-04-02T01:23:04.377Z,595.86
2023-04-02T01:23:14.375Z,596.23
2023-04-02T01:23:24.382Z,596.66
2023-04-02T01:23:34.394Z,596.18
2023-04-02T01:23:44.387Z,595.88
2023-04-02T01:23:54.386Z,596.40
2023-04-02T01:24:04.411Z,596.37
2023-04-02T01:24:14.398Z,597.04
2023-04-02T01:24:34.390Z,596.18
2023-04-02T01:24:44.397Z,595.68
2023-04-02T01:24:54.391Z,596.83
2023-04-02T01:25:04.401Z,596.18
2023-04-02T01:25:14.393Z,596.45
2023-04-02T01:25:24.390Z,597.17
2023-04-02T01:25:34.703Z,596.87
2023-04-02T01:25:44.386Z,596.51
2023-04-02T01:25:54.402Z,596.03
2023-04-02T01:26:14.397Z,595.78
2023-04-02T01:26:24.410Z,595.62
2023-04-02T01:26:34.401Z,595.22
2023-04-02T01:26:44.399Z,595.43
2023-04-02T01:26:54.406Z,596.84
2023-04-02T01:27:04.400Z,595.92
2023-04-02T01:27:14.414Z,596.61
2023-04-02T01:27:24.405Z,596.17
2023-04-02T01:27:34.427Z,595.90
2023-04-02T01:27:44.408Z,595.39
2023-04-02T01:27:54.416Z,594.43
2023-04-02T01:28:04.404Z,596.33
2023-04-02T01:28:14.409Z,595.68
2023-04-02T01:28:24.404Z,596.46
2023-04-02T01:28:34.410Z,596.62
2023-04-02T01:28:44.406Z,596.21
2023-04-02T01:28:54.412Z,596.12
2023-04-02T01:29:04.401Z,596.17
2023-04-02T01:29:14.405Z,595.57
2023-04-02T01:29:24.423Z,595.04
2023-04-02T01:29:34.410Z,596.05
2023-04-02T01:29:44.408Z,596.06
2023-04-02T01:29:54.427Z,596.21
2023-04-02T01:30:04.412Z,595.51
2023-04-02T01:30:14.409Z,596.09
2023-04-02T01:30:24.423Z,596.12
2023-04-02T01:30:34.415Z,595.62
2023-04-02T01:30:44.413Z,595.89
2023-04-02T01:30:54.556Z,594.70
2023-04-02T01:31:04.482Z,596.68
2023-04-02T01:31:14.474Z,595.09
2023-04-02T01:31:24.449Z,595.31
2023-04-02T01:31:34.525Z,595.84
2023-04-02T01:31:44.509Z,596.05
2023-04-02T01:31:54.422Z,594.49
2023-04-02T01:32:04.418Z,595.62
2023-04-02T01:32:14.450Z,595.70
2023-04-02T01:32:24.450Z,595.75
2023-04-02T01:32:44.454Z,594.25
2023-04-02T01:32:54.457Z,593.85
2023-04-02T01:33:04.459Z,595.51
2023-04-02T01:33:14.426Z,596.39
2023-04-02T01:33:24.439Z,594.59
2023-04-02T01:33:34.488Z,595.46
2023-04-02T01:33:44.429Z,595.19
2023-04-02T01:33:54.430Z,596.36
2023-04-02T01:34:14.432Z,594.92
2023-04-02T01:34:26.448Z,595.42
2023-04-02T01:34:34.439Z,595.36
2023-04-02T01:34:44.437Z,595.17
2023-04-02T01:34:54.445Z,595.43
2023-04-02T01:35:04.443Z,595.25
2023-04-02T01:35:14.435Z,597.21
2023-04-02T01:35:24.449Z,594.46
2023-04-02T01:35:34.726Z,594.47
2023-04-02T01:35:44.477Z,594.24
2023-04-02T01:35:54.488Z,594.78
2023-04-02T01:36:04.474Z,594.29
2023-04-02T01:36:14.463Z,594.87
2023-04-02T01:36:24.441Z,594.74
2023-04-02T01:36:34.459Z,593.85
2023-04-02T01:36:44.446Z,594.24
2023-04-02T01:36:54.446Z,591.89
2023-04-02T01:37:04.444Z,594.69
2023-04-02T01:37:14.443Z,596.71
2023-04-02T01:37:24.450Z,594.22
2023-04-02T01:37:44.450Z,594.74
2023-04-02T01:37:54.458Z,594.67
2023-04-02T01:38:04.448Z,593.50
2023-04-02T01:38:14.459Z,593.99
2023-04-02T01:38:24.452Z,594.02
2023-04-02T01:38:34.455Z,594.36
2023-04-02T01:38:44.458Z,594.14
2023-04-02T01:38:54.464Z,595.01
2023-04-02T01:39:04.455Z,594.36
2023-04-02T01:39:14.468Z,594.72
2023-04-02T01:39:24.461Z,594.32
2023-04-02T01:39:34.459Z,594.33
2023-04-02T01:39:44.462Z,593.78
2023-04-02T01:39:54.461Z,594.02
2023-04-02T01:40:04.458Z,593.88
2023-04-02T01:40:14.469Z,594.28
2023-04-02T01:40:24.467Z,594.51
2023-04-02T01:40:34.465Z,594.36
2023-04-02T01:40:44.464Z,594.14
2023-04-02T01:40:54.465Z,593.67
2023-04-02T01:41:04.464Z,592.06
2023-04-02T01:41:14.468Z,594.53
2023-04-02T01:41:24.474Z,593.32
2023-04-02T01:41:34.480Z,593.48
2023-04-02T01:41:44.475Z,594.08
2023-04-02T01:41:54.473Z,593.14
2023-04-02T01:42:04.470Z,593.85
2023-04-02T01:42:14.476Z,595.16
2023-04-02T01:42:24.490Z,593.74
2023-04-02T01:42:44.480Z,593.89
2023-04-02T01:42:54.480Z,593.61
2023-04-02T01:43:04.483Z,593.54
2023-04-02T01:43:14.487Z,593.19
2023-04-02T01:43:24.485Z,593.63
2023-04-02T01:43:34.517Z,593.55
2023-04-02T01:43:44.486Z,594.30
2023-04-02T01:43:54.521Z,593.64
2023-04-02T01:44:04.490Z,593.73
2023-04-02T01:44:14.501Z,593.73
2023-04-02T01:44:24.488Z,593.54
2023-04-02T01:44:34.515Z,593.26
2023-04-02T01:44:54.510Z,593.25
2023-04-02T01:45:04.493Z,593.39
2023-04-02T01:45:14.498Z,593.68
2023-04-02T01:45:24.504Z,593.69
2023-04-02T01:45:34.706Z,592.99
2023-04-02T01:45:44.498Z,593.50
2023-04-02T01:46:04.552Z,593.23
2023-04-02T01:46:14.504Z,593.16
2023-04-02T01:46:24.582Z,592.70
2023-04-02T01:46:34.559Z,593.18
2023-04-02T01:46:44.528Z,593.13
2023-04-02T01:46:54.531Z,592.21
2023-04-02T01:47:04.508Z,593.23
2023-04-02T01:47:14.501Z,593.75
2023-04-02T01:47:24.525Z,592.16
2023-04-02T01:47:44.558Z,592.94
2023-04-02T01:47:54.505Z,592.69
2023-04-02T01:48:04.528Z,593.01
2023-04-02T01:48:14.506Z,592.67
2023-04-02T01:48:24.519Z,592.45
2023-04-02T01:48:34.510Z,592.50
2023-04-02T01:48:44.511Z,592.23
2023-04-02T01:48:54.516Z,592.13
2023-04-02T01:49:04.511Z,590.27
2023-04-02T01:49:14.538Z,590.83
2023-04-02T01:49:24.511Z,591.86
2023-04-02T01:49:34.519Z,591.22
2023-04-02T01:49:44.512Z,592.00
2023-04-02T01:49:54.516Z,592.06
2023-04-02T01:50:04.517Z,590.87
2023-04-02T01:50:14.515Z,591.56
2023-04-02T01:50:24.519Z,591.75
2023-04-02T01:50:34.528Z,592.24
2023-04-02T01:50:44.516Z,591.88
2023-04-02T01:50:54.531Z,592.23
2023-04-02T01:51:04.519Z,592.44
2023-04-02T01:51:14.523Z,591.51
2023-04-02T01:51:24.522Z,591.34
2023-04-02T01:51:34.543Z,592.32
2023-04-02T01:51:44.527Z,591.99
2023-04-02T01:51:54.525Z,591.52
2023-04-02T01:52:04.535Z,591.86
2023-04-02T01:52:14.544Z,591.17
2023-04-02T01:52:24.531Z,594.04
2023-04-02T01:52:44.529Z,592.28
2023-04-02T01:52:54.531Z,592.80
2023-04-02T01:53:04.536Z,591.00
2023-04-02T01:53:14.534Z,591.57
2023-04-02T01:53:24.529Z,591.35
2023-04-02T01:53:34.549Z,591.46
2023-04-02T01:53:44.548Z,591.36
2023-04-02T01:53:54.543Z,591.24
2023-04-02T01:54:04.532Z,591.78
2023-04-02T01:54:14.568Z,591.24
2023-04-02T01:54:24.536Z,591.38
2023-04-02T01:54:44.540Z,592.24
2023-04-02T01:54:54.542Z,591.17
2023-04-02T01:55:04.537Z,593.41
2023-04-02T01:55:14.550Z,590.24
2023-04-02T01:55:24.541Z,587.86
2023-04-02T01:55:34.772Z,591.11
2023-04-02T01:55:44.542Z,590.29
2023-04-02T01:55:54.543Z,590.49
2023-04-02T01:56:04.545Z,591.00
2023-04-02T01:56:14.563Z,591.46
2023-04-02T01:56:24.544Z,590.83
2023-04-02T01:56:34.576Z,591.21
2023-04-02T01:56:44.546Z,588.72
2023-04-02T01:56:54.578Z,590.64
2023-04-02T01:57:04.594Z,590.91
2023-04-02T01:57:14.630Z,590.36
2023-04-02T01:57:24.573Z,590.72
2023-04-02T01:57:44.554Z,590.24
2023-04-02T01:57:54.594Z,589.36
2023-04-02T01:58:04.551Z,587.11
2023-04-02T01:58:14.579Z,591.89
2023-04-02T01:58:24.558Z,590.42
2023-04-02T01:58:34.553Z,589.67
2023-04-02T01:58:44.554Z,589.79
2023-04-02T01:59:04.559Z,590.33
2023-04-02T01:59:14.561Z,590.31
2023-04-02T01:59:24.565Z,590.34
2023-04-02T01:59:34.571Z,589.31
2023-04-02T01:59:44.569Z,589.97
2023-04-02T01:59:54.569Z,589.68
2023-04-02T02:00:04.560Z,589.40
2023-04-02T02:00:14.572Z,589.65
2023-04-02T02:00:24.596Z,589.29
2023-04-02T02:00:34.636Z,590.12
2023-04-02T02:00:44.590Z,589.37
2023-04-02T02:00:54.641Z,589.99
2023-04-02T02:01:04.618Z,588.99
2023-04-02T02:01:14.615Z,588.67
2023-04-02T02:01:24.630Z,590.73
2023-04-02T02:01:34.587Z,589.71
2023-04-02T02:01:44.586Z,589.79
2023-04-02T02:01:54.591Z,589.73
2023-04-02T02:02:04.609Z,590.02
2023-04-02T02:02:14.666Z,589.42
2023-04-02T02:02:24.692Z,590.46
2023-04-02T02:02:44.642Z,589.81
2023-04-02T02:02:54.621Z,589.78
2023-04-02T02:03:04.692Z,589.48
2023-04-02T02:03:14.608Z,590.14
2023-04-02T02:03:24.585Z,590.67
2023-04-02T02:03:34.588Z,589.95
2023-04-02T02:03:44.588Z,588.76
2023-04-02T02:04:04.579Z,590.31
2023-04-02T02:04:14.622Z,590.91
2023-04-02T02:04:24.582Z,590.45
2023-04-02T02:04:34.600Z,590.28
2023-04-02T02:04:44.589Z,589.29
2023-04-02T02:04:54.595Z,588.53
2023-04-02T02:05:04.595Z,588.27
2023-04-02T02:05:24.595Z,589.26
2023-04-02T02:05:34.793Z,589.72
2023-04-02T02:05:44.654Z,588.01
2023-04-02T02:05:54.603Z,589.52
2023-04-02T02:06:04.598Z,589.91
2023-04-02T02:06:14.598Z,589.74
2023-04-02T02:06:34.607Z,589.80
2023-04-02T02:06:44.607Z,590.57
2023-04-02T02:06:54.595Z,590.09
2023-04-02T02:07:04.596Z,589.46
2023-04-02T02:07:14.600Z,588.66
2023-04-02T02:07:24.608Z,589.77
2023-04-02T02:07:34.603Z,589.13
2023-04-02T02:07:44.605Z,589.35
2023-04-02T02:07:54.610Z,589.89
2023-04-02T02:08:04.606Z,589.81
2023-04-02T02:08:14.611Z,589.02
2023-04-02T02:08:24.634Z,589.16
2023-04-02T02:08:34.671Z,589.34
2023-04-02T02:08:44.628Z,589.32
2023-04-02T02:08:54.613Z,589.60
2023-04-02T02:09:04.630Z,589.47
2023-04-02T02:09:14.616Z,589.58
2023-04-02T02:09:24.614Z,589.87
2023-04-02T02:09:34.607Z,589.71
2023-04-02T02:09:44.614Z,589.24
2023-04-02T02:09:54.612Z,589.72
2023-04-02T02:10:04.616Z,588.48
2023-04-02T02:10:14.612Z,589.27
2023-04-02T02:10:24.624Z,589.54
2023-04-02T02:10:34.625Z,589.04
2023-04-02T02:10:44.627Z,589.28
2023-04-02T02:10:54.617Z,589.09
2023-04-02T02:11:04.620Z,589.26
2023-04-02T02:11:14.625Z,589.77
2023-04-02T02:11:24.632Z,588.75
2023-04-02T02:11:34.632Z,589.28
2023-04-02T02:11:44.641Z,589.73
2023-04-02T02:11:54.622Z,589.43
2023-04-02T02:12:14.651Z,589.78
2023-04-02T02:12:24.637Z,589.50
2023-04-02T02:12:34.654Z,589.42
2023-04-02T02:12:44.630Z,589.18
2023-04-02T02:12:54.637Z,588.66
2023-04-02T02:13:04.637Z,588.81